sensor_id;sensor_type;location;lat;lon;timestamp;P1;durP1;ratioP1;P2;durP2;ratioP2
65477;SDS011;53678;39.642;22.430;2023-03-23T00:01:18;15.73;;;10.57;;
65477;SDS011;53678;39.642;22.430;2023-03-23T00:03:49;21.40;;;11.30;;
65477;SDS011;53678;39.642;22.430;2023-03-23T00:06:17;18.73;;;12.82;;
65477;SDS011;53678;39.642;22.430;2023-03-23T00:08:47;20.85;;;12.43;;
65477;SDS011;53678;39.642;22.430;2023-03-23T00:11:17;17.13;;;11.15;;
65477;SDS011;53678;39.642;22.430;2023-03-23T00:13:45;18.58;;;11.90;;
65477;SDS011;53678;39.642;22.430;2023-03-23T00:16:13;16.83;;;11.13;;
65477;SDS011;53678;39.642;22.430;2023-03-23T00:18:45;14.73;;;9.80;;
65477;SDS011;53678;39.642;22.430;2023-03-23T00:21:19;14.23;;;10.05;;
65477;SDS011;53678;39.642;22.430;2023-03-23T00:23:45;15.65;;;9.63;;
65477;SDS011;53678;39.642;22.430;2023-03-23T00:26:18;19.52;;;11.40;;
65477;SDS011;53678;39.642;22.430;2023-03-23T00:28:44;18.23;;;10.75;;
65477;SDS011;53678;39.642;22.430;2023-03-23T00:31:12;16.60;;;11.13;;
65477;SDS011;53678;39.642;22.430;2023-03-23T00:33:38;18.98;;;10.50;;
65477;SDS011;53678;39.642;22.430;2023-03-23T00:36:12;18.27;;;11.82;;
65477;SDS011;53678;39.642;22.430;2023-03-23T00:41:09;20.48;;;12.27;;
65477;SDS011;53678;39.642;22.430;2023-03-23T00:43:36;20.67;;;12.73;;
65477;SDS011;53678;39.642;22.430;2023-03-23T00:46:04;20.20;;;12.05;;
65477;SDS011;53678;39.642;22.430;2023-03-23T00:48:35;17.98;;;11.98;;
65477;SDS011;53678;39.642;22.430;2023-03-23T00:51:05;21.45;;;12.63;;
65477;SDS011;53678;39.642;22.430;2023-03-23T00:53:35;17.25;;;11.50;;
65477;SDS011;53678;39.642;22.430;2023-03-23T00:56:01;17.75;;;11.43;;
65477;SDS011;53678;39.642;22.430;2023-03-23T00:58:27;20.30;;;12.88;;
65477;SDS011;53678;39.642;22.430;2023-03-23T01:00:53;30.33;;;13.98;;
65477;SDS011;53678;39.642;22.430;2023-03-23T01:03:19;32.05;;;13.82;;
65477;SDS011;53678;39.642;22.430;2023-03-23T01:05:45;21.05;;;12.27;;
65477;SDS011;53678;39.642;22.430;2023-03-23T01:08:16;30.25;;;14.00;;
65477;SDS011;53678;39.642;22.430;2023-03-23T01:10:44;17.77;;;12.07;;
65477;SDS011;53678;39.642;22.430;2023-03-23T01:13:10;25.58;;;14.43;;
65477;SDS011;53678;39.642;22.430;2023-03-23T01:15:36;22.33;;;13.88;;
65477;SDS011;53678;39.642;22.430;2023-03-23T01:18:03;17.85;;;12.98;;
65477;SDS011;53678;39.642;22.430;2023-03-23T01:20:29;21.40;;;13.05;;
65477;SDS011;53678;39.642;22.430;2023-03-23T01:22:59;27.40;;;13.90;;
65477;SDS011;53678;39.642;22.430;2023-03-23T01:25:28;19.73;;;12.55;;
65477;SDS011;53678;39.642;22.430;2023-03-23T01:27:55;22.10;;;12.15;;
65477;SDS011;53678;39.642;22.430;2023-03-23T01:30:22;22.17;;;12.65;;
65477;SDS011;53678;39.642;22.430;2023-03-23T01:32:48;21.38;;;12.63;;
65477;SDS011;53678;39.642;22.430;2023-03-23T01:35:14;21.23;;;12.10;;
65477;SDS011;53678;39.642;22.430;2023-03-23T01:37:40;20.85;;;12.52;;
65477;SDS011;53678;39.642;22.430;2023-03-23T01:40:06;23.92;;;13.85;;
65477;SDS011;53678;39.642;22.430;2023-03-23T01:42:34;17.17;;;12.80;;
65477;SDS011;53678;39.642;22.430;2023-03-23T01:47:59;17.92;;;12.82;;
65477;SDS011;53678;39.642;22.430;2023-03-23T01:50:31;21.13;;;13.60;;
65477;SDS011;53678;39.642;22.430;2023-03-23T01:53:01;24.60;;;14.10;;
65477;SDS011;53678;39.642;22.430;2023-03-23T01:58:01;24.10;;;13.63;;
65477;SDS011;53678;39.642;22.430;2023-03-23T02:00:28;18.48;;;13.15;;
65477;SDS011;53678;39.642;22.430;2023-03-23T02:02:55;20.52;;;13.68;;
65477;SDS011;53678;39.642;22.430;2023-03-23T02:05:37;25.60;;;14.50;;
65477;SDS011;53678;39.642;22.430;2023-03-23T02:08:11;26.60;;;14.13;;
65477;SDS011;53678;39.642;22.430;2023-03-23T02:10:40;20.08;;;13.80;;
65477;SDS011;53678;39.642;22.430;2023-03-23T02:13:07;21.48;;;14.48;;
65477;SDS011;53678;39.642;22.430;2023-03-23T02:16:21;21.95;;;15.48;;
65477;SDS011;53678;39.642;22.430;2023-03-23T02:18:44;19.27;;;14.57;;
65477;SDS011;53678;39.642;22.430;2023-03-23T02:27:03;24.58;;;15.95;;
65477;SDS011;53678;39.642;22.430;2023-03-23T02:30:17;27.55;;;18.15;;
65477;SDS011;53678;39.642;22.430;2023-03-23T02:35:17;25.95;;;15.70;;
65477;SDS011;53678;39.642;22.430;2023-03-23T02:38:09;21.23;;;14.70;;
65477;SDS011;53678;39.642;22.430;2023-03-23T02:40:41;20.50;;;14.75;;
65477;SDS011;53678;39.642;22.430;2023-03-23T02:43:15;21.40;;;14.80;;
65477;SDS011;53678;39.642;22.430;2023-03-23T02:45:45;21.90;;;15.57;;
65477;SDS011;53678;39.642;22.430;2023-03-23T02:48:13;27.33;;;17.17;;
65477;SDS011;53678;39.642;22.430;2023-03-23T02:50:43;25.73;;;18.13;;
65477;SDS011;53678;39.642;22.430;2023-03-23T02:53:13;26.63;;;18.02;;
65477;SDS011;53678;39.642;22.430;2023-03-23T02:55:43;28.33;;;19.42;;
65477;SDS011;53678;39.642;22.430;2023-03-23T02:58:15;26.75;;;17.58;;
65477;SDS011;53678;39.642;22.430;2023-03-23T03:00:42;28.50;;;18.48;;
65477;SDS011;53678;39.642;22.430;2023-03-23T03:03:11;26.98;;;17.70;;
65477;SDS011;53678;39.642;22.430;2023-03-23T03:05:43;28.77;;;19.08;;
65477;SDS011;53678;39.642;22.430;2023-03-23T03:08:52;27.45;;;18.77;;
65477;SDS011;53678;39.642;22.430;2023-03-23T03:11:20;31.65;;;20.33;;
65477;SDS011;53678;39.642;22.430;2023-03-23T03:16:38;24.88;;;18.00;;
65477;SDS011;53678;39.642;22.430;2023-03-23T03:19:22;29.65;;;17.63;;
65477;SDS011;53678;39.642;22.430;2023-03-23T03:21:53;28.23;;;16.70;;
65477;SDS011;53678;39.642;22.430;2023-03-23T03:24:30;24.40;;;15.43;;
65477;SDS011;53678;39.642;22.430;2023-03-23T03:26:57;28.17;;;16.75;;
65477;SDS011;53678;39.642;22.430;2023-03-23T03:29:33;28.17;;;16.63;;
65477;SDS011;53678;39.642;22.430;2023-03-23T03:32:04;26.58;;;18.92;;
65477;SDS011;53678;39.642;22.430;2023-03-23T03:34:33;23.33;;;17.52;;
65477;SDS011;53678;39.642;22.430;2023-03-23T03:36:59;22.27;;;15.82;;
65477;SDS011;53678;39.642;22.430;2023-03-23T03:39:26;17.52;;;12.73;;
65477;SDS011;53678;39.642;22.430;2023-03-23T03:41:52;18.33;;;12.63;;
65477;SDS011;53678;39.642;22.430;2023-03-23T03:44:19;19.17;;;12.90;;
65477;SDS011;53678;39.642;22.430;2023-03-23T03:46:45;20.10;;;12.68;;
65477;SDS011;53678;39.642;22.430;2023-03-23T03:49:11;19.95;;;13.43;;
65477;SDS011;53678;39.642;22.430;2023-03-23T03:51:40;21.65;;;13.50;;
65477;SDS011;53678;39.642;22.430;2023-03-23T03:54:10;20.08;;;13.90;;
65477;SDS011;53678;39.642;22.430;2023-03-23T03:56:36;19.83;;;13.13;;
65477;SDS011;53678;39.642;22.430;2023-03-23T03:59:37;25.77;;;15.00;;
65477;SDS011;53678;39.642;22.430;2023-03-23T04:02:23;18.17;;;13.60;;
65477;SDS011;53678;39.642;22.430;2023-03-23T04:04:51;20.88;;;13.57;;
65477;SDS011;53678;39.642;22.430;2023-03-23T04:07:18;20.65;;;13.02;;
65477;SDS011;53678;39.642;22.430;2023-03-23T04:09:44;20.00;;;12.82;;
65477;SDS011;53678;39.642;22.430;2023-03-23T04:12:16;16.90;;;12.90;;
65477;SDS011;53678;39.642;22.430;2023-03-23T04:15:08;18.30;;;11.68;;
65477;SDS011;53678;39.642;22.430;2023-03-23T04:17:35;18.52;;;12.15;;
65477;SDS011;53678;39.642;22.430;2023-03-23T04:20:01;19.25;;;12.82;;
65477;SDS011;53678;39.642;22.430;2023-03-23T04:22:34;25.27;;;14.67;;
65477;SDS011;53678;39.642;22.430;2023-03-23T04:25:00;28.90;;;15.00;;
65477;SDS011;53678;39.642;22.430;2023-03-23T04:27:32;29.45;;;16.63;;
65477;SDS011;53678;39.642;22.430;2023-03-23T04:30:00;26.42;;;15.65;;
65477;SDS011;53678;39.642;22.430;2023-03-23T04:32:39;30.63;;;14.82;;
65477;SDS011;53678;39.642;22.430;2023-03-23T04:35:09;44.22;;;16.77;;
65477;SDS011;53678;39.642;22.430;2023-03-23T04:37:41;33.70;;;14.50;;
65477;SDS011;53678;39.642;22.430;2023-03-23T04:40:10;36.35;;;14.70;;
65477;SDS011;53678;39.642;22.430;2023-03-23T04:42:42;30.08;;;16.08;;
65477;SDS011;53678;39.642;22.430;2023-03-23T04:45:27;24.48;;;14.30;;
65477;SDS011;53678;39.642;22.430;2023-03-23T04:47:55;30.40;;;15.15;;
65477;SDS011;53678;39.642;22.430;2023-03-23T04:50:31;24.35;;;14.95;;
65477;SDS011;53678;39.642;22.430;2023-03-23T04:53:05;28.70;;;14.00;;
65477;SDS011;53678;39.642;22.430;2023-03-23T04:55:32;28.50;;;12.95;;
65477;SDS011;53678;39.642;22.430;2023-03-23T04:58:03;20.58;;;11.82;;
65477;SDS011;53678;39.642;22.430;2023-03-23T05:00:43;26.58;;;11.45;;
65477;SDS011;53678;39.642;22.430;2023-03-23T05:03:19;13.20;;;10.20;;
65477;SDS011;53678;39.642;22.430;2023-03-23T05:05:45;16.38;;;10.00;;
65477;SDS011;53678;39.642;22.430;2023-03-23T05:08:19;14.65;;;9.95;;
65477;SDS011;53678;39.642;22.430;2023-03-23T05:10:56;16.10;;;9.82;;
65477;SDS011;53678;39.642;22.430;2023-03-23T05:13:24;15.68;;;9.25;;
65477;SDS011;53678;39.642;22.430;2023-03-23T05:15:56;23.77;;;9.88;;
65477;SDS011;53678;39.642;22.430;2023-03-23T05:18:22;20.15;;;10.90;;
65477;SDS011;53678;39.642;22.430;2023-03-23T05:20:49;15.38;;;9.43;;
65477;SDS011;53678;39.642;22.430;2023-03-23T05:23:18;14.68;;;9.73;;
65477;SDS011;53678;39.642;22.430;2023-03-23T05:25:55;18.05;;;10.23;;
65477;SDS011;53678;39.642;22.430;2023-03-23T05:28:27;15.02;;;9.77;;
65477;SDS011;53678;39.642;22.430;2023-03-23T05:31:04;27.23;;;10.75;;
65477;SDS011;53678;39.642;22.430;2023-03-23T05:33:31;20.98;;;9.73;;
65477;SDS011;53678;39.642;22.430;2023-03-23T05:35:57;22.48;;;10.63;;
65477;SDS011;53678;39.642;22.430;2023-03-23T05:38:28;19.13;;;10.00;;
65477;SDS011;53678;39.642;22.430;2023-03-23T05:40:58;19.45;;;10.32;;
65477;SDS011;53678;39.642;22.430;2023-03-23T05:43:31;17.73;;;9.32;;
65477;SDS011;53678;39.642;22.430;2023-03-23T05:46:08;42.20;;;13.38;;
65477;SDS011;53678;39.642;22.430;2023-03-23T05:48:36;28.45;;;11.60;;
65477;SDS011;53678;39.642;22.430;2023-03-23T05:51:03;16.27;;;10.10;;
65477;SDS011;53678;39.642;22.430;2023-03-23T05:53:31;19.00;;;10.10;;
65477;SDS011;53678;39.642;22.430;2023-03-23T05:55:58;20.10;;;10.70;;
65477;SDS011;53678;39.642;22.430;2023-03-23T05:58:44;22.77;;;10.20;;
65477;SDS011;53678;39.642;22.430;2023-03-23T06:01:10;19.70;;;10.02;;
65477;SDS011;53678;39.642;22.430;2023-03-23T06:03:39;16.58;;;10.02;;
65477;SDS011;53678;39.642;22.430;2023-03-23T06:06:13;18.33;;;11.43;;
65477;SDS011;53678;39.642;22.430;2023-03-23T06:08:50;21.13;;;13.45;;
65477;SDS011;53678;39.642;22.430;2023-03-23T06:11:22;24.67;;;13.20;;
65477;SDS011;53678;39.642;22.430;2023-03-23T06:14:06;28.08;;;13.85;;
65477;SDS011;53678;39.642;22.430;2023-03-23T06:16:33;22.23;;;12.80;;
65477;SDS011;53678;39.642;22.430;2023-03-23T06:19:02;21.02;;;13.60;;
65477;SDS011;53678;39.642;22.430;2023-03-23T06:21:34;27.40;;;15.10;;
65477;SDS011;53678;39.642;22.430;2023-03-23T06:24:08;22.67;;;13.52;;
65477;SDS011;53678;39.642;22.430;2023-03-23T06:26:40;23.03;;;13.03;;
65477;SDS011;53678;39.642;22.430;2023-03-23T06:29:11;22.30;;;14.25;;
65477;SDS011;53678;39.642;22.430;2023-03-23T06:31:49;21.50;;;14.20;;
65477;SDS011;53678;39.642;22.430;2023-03-23T06:34:19;26.50;;;13.43;;
65477;SDS011;53678;39.642;22.430;2023-03-23T06:37:06;21.73;;;12.32;;
65477;SDS011;53678;39.642;22.430;2023-03-23T06:40:04;24.55;;;12.80;;
65477;SDS011;53678;39.642;22.430;2023-03-23T06:42:42;20.25;;;11.95;;
65477;SDS011;53678;39.642;22.430;2023-03-23T06:45:46;19.23;;;12.23;;
65477;SDS011;53678;39.642;22.430;2023-03-23T06:48:38;18.88;;;11.80;;
65477;SDS011;53678;39.642;22.430;2023-03-23T06:51:05;21.23;;;12.15;;
65477;SDS011;53678;39.642;22.430;2023-03-23T06:53:32;19.88;;;12.75;;
65477;SDS011;53678;39.642;22.430;2023-03-23T06:55:59;18.02;;;11.77;;
65477;SDS011;53678;39.642;22.430;2023-03-23T06:58:25;20.38;;;11.20;;
65477;SDS011;53678;39.642;22.430;2023-03-23T07:00:56;16.35;;;10.43;;
65477;SDS011;53678;39.642;22.430;2023-03-23T07:03:28;20.50;;;11.60;;
65477;SDS011;53678;39.642;22.430;2023-03-23T07:05:54;16.13;;;10.80;;
65477;SDS011;53678;39.642;22.430;2023-03-23T07:08:23;18.38;;;11.75;;
65477;SDS011;53678;39.642;22.430;2023-03-23T07:10:53;16.55;;;11.13;;
65477;SDS011;53678;39.642;22.430;2023-03-23T07:13:26;14.27;;;10.73;;
65477;SDS011;53678;39.642;22.430;2023-03-23T07:15:58;20.25;;;12.32;;
65477;SDS011;53678;39.642;22.430;2023-03-23T07:18:24;18.67;;;11.27;;
65477;SDS011;53678;39.642;22.430;2023-03-23T07:20:52;16.75;;;11.88;;
65477;SDS011;53678;39.642;22.430;2023-03-23T07:23:21;15.57;;;11.10;;
65477;SDS011;53678;39.642;22.430;2023-03-23T07:25:56;16.05;;;11.27;;
65477;SDS011;53678;39.642;22.430;2023-03-23T07:28:29;19.30;;;10.65;;
65477;SDS011;53678;39.642;22.430;2023-03-23T07:31:01;15.93;;;10.57;;
65477;SDS011;53678;39.642;22.430;2023-03-23T07:33:27;17.98;;;11.75;;
65477;SDS011;53678;39.642;22.430;2023-03-23T07:35:55;15.57;;;10.80;;
65477;SDS011;53678;39.642;22.430;2023-03-23T07:38:24;15.60;;;11.75;;
65477;SDS011;53678;39.642;22.430;2023-03-23T07:40:53;18.58;;;11.50;;
65477;SDS011;53678;39.642;22.430;2023-03-23T07:43:20;18.90;;;10.65;;
65477;SDS011;53678;39.642;22.430;2023-03-23T07:46:01;16.45;;;11.15;;
65477;SDS011;53678;39.642;22.430;2023-03-23T07:48:43;15.82;;;10.82;;
65477;SDS011;53678;39.642;22.430;2023-03-23T07:51:09;17.08;;;10.98;;
65477;SDS011;53678;39.642;22.430;2023-03-23T07:53:35;15.52;;;10.68;;
65477;SDS011;53678;39.642;22.430;2023-03-23T07:56:19;12.85;;;10.43;;
65477;SDS011;53678;39.642;22.430;2023-03-23T07:58:59;16.48;;;9.93;;
65477;SDS011;53678;39.642;22.430;2023-03-23T08:01:26;14.77;;;10.50;;
65477;SDS011;53678;39.642;22.430;2023-03-23T08:04:28;16.08;;;8.98;;
65477;SDS011;53678;39.642;22.430;2023-03-23T08:07:13;15.25;;;10.27;;
65477;SDS011;53678;39.642;22.430;2023-03-23T08:09:49;15.82;;;10.20;;
65477;SDS011;53678;39.642;22.430;2023-03-23T08:12:31;13.00;;;9.98;;
65477;SDS011;53678;39.642;22.430;2023-03-23T08:15:14;17.40;;;10.50;;
65477;SDS011;53678;39.642;22.430;2023-03-23T08:18:19;16.45;;;10.52;;
65477;SDS011;53678;39.642;22.430;2023-03-23T08:21:04;19.23;;;10.25;;
65477;SDS011;53678;39.642;22.430;2023-03-23T08:23:49;14.60;;;9.15;;
65477;SDS011;53678;39.642;22.430;2023-03-23T08:26:35;12.55;;;9.48;;
65477;SDS011;53678;39.642;22.430;2023-03-23T08:29:21;17.30;;;10.13;;
65477;SDS011;53678;39.642;22.430;2023-03-23T08:32:05;17.70;;;11.05;;
65477;SDS011;53678;39.642;22.430;2023-03-23T08:34:43;17.02;;;10.20;;
65477;SDS011;53678;39.642;22.430;2023-03-23T08:37:25;11.85;;;8.43;;
65477;SDS011;53678;39.642;22.430;2023-03-23T08:40:14;12.85;;;9.07;;
65477;SDS011;53678;39.642;22.430;2023-03-23T08:42:46;15.63;;;9.32;;
65477;SDS011;53678;39.642;22.430;2023-03-23T08:45:25;15.25;;;9.27;;
65477;SDS011;53678;39.642;22.430;2023-03-23T08:48:10;13.23;;;9.13;;
65477;SDS011;53678;39.642;22.430;2023-03-23T08:51:07;14.75;;;9.15;;
65477;SDS011;53678;39.642;22.430;2023-03-23T08:53:33;14.23;;;9.57;;
65477;SDS011;53678;39.642;22.430;2023-03-23T08:56:35;19.20;;;10.93;;
65477;SDS011;53678;39.642;22.430;2023-03-23T08:59:07;16.05;;;9.82;;
65477;SDS011;53678;39.642;22.430;2023-03-23T09:01:52;13.15;;;9.05;;
65477;SDS011;53678;39.642;22.430;2023-03-23T09:04:22;16.58;;;10.32;;
65477;SDS011;53678;39.642;22.430;2023-03-23T09:07:06;18.50;;;10.48;;
65477;SDS011;53678;39.642;22.430;2023-03-23T09:09:32;15.25;;;9.70;;
65477;SDS011;53678;39.642;22.430;2023-03-23T09:11:59;16.02;;;10.20;;
65477;SDS011;53678;39.642;22.430;2023-03-23T09:14:25;14.77;;;9.43;;
65477;SDS011;53678;39.642;22.430;2023-03-23T09:16:52;12.68;;;8.85;;
65477;SDS011;53678;39.642;22.430;2023-03-23T09:19:18;14.23;;;9.57;;
65477;SDS011;53678;39.642;22.430;2023-03-23T09:21:43;16.00;;;9.32;;
65477;SDS011;53678;39.642;22.430;2023-03-23T09:24:10;13.10;;;8.23;;
65477;SDS011;53678;39.642;22.430;2023-03-23T09:26:36;14.50;;;9.55;;
65477;SDS011;53678;39.642;22.430;2023-03-23T09:29:02;16.05;;;10.95;;
65477;SDS011;53678;39.642;22.430;2023-03-23T09:31:29;11.98;;;8.98;;
65477;SDS011;53678;39.642;22.430;2023-03-23T09:33:57;10.80;;;8.68;;
65477;SDS011;53678;39.642;22.430;2023-03-23T09:36:24;15.77;;;9.38;;
65477;SDS011;53678;39.642;22.430;2023-03-23T09:38:57;21.20;;;9.98;;
65477;SDS011;53678;39.642;22.430;2023-03-23T09:50:31;12.95;;;6.40;;
65477;SDS011;53678;39.642;22.430;2023-03-23T09:53:43;13.80;;;7.40;;
65477;SDS011;53678;39.642;22.430;2023-03-23T09:56:13;9.52;;;6.82;;
65477;SDS011;53678;39.642;22.430;2023-03-23T09:58:46;10.63;;;6.28;;
65477;SDS011;53678;39.642;22.430;2023-03-23T10:01:20;9.75;;;5.95;;
65477;SDS011;53678;39.642;22.430;2023-03-23T10:06:47;8.43;;;5.63;;
65477;SDS011;53678;39.642;22.430;2023-03-23T10:09:15;11.40;;;6.78;;
65477;SDS011;53678;39.642;22.430;2023-03-23T10:12:27;8.85;;;6.20;;
65477;SDS011;53678;39.642;22.430;2023-03-23T10:20:34;11.10;;;6.78;;
65477;SDS011;53678;39.642;22.430;2023-03-23T10:26:20;9.13;;;6.80;;
65477;SDS011;53678;39.642;22.430;2023-03-23T10:29:15;9.52;;;6.57;;
65477;SDS011;53678;39.642;22.430;2023-03-23T10:35:03;10.02;;;6.95;;
65477;SDS011;53678;39.642;22.430;2023-03-23T10:37:34;9.57;;;6.03;;
65477;SDS011;53678;39.642;22.430;2023-03-23T10:40:04;12.30;;;6.82;;
65477;SDS011;53678;39.642;22.430;2023-03-23T10:42:35;8.82;;;5.90;;
65477;SDS011;53678;39.642;22.430;2023-03-23T10:45:14;10.45;;;5.95;;
65477;SDS011;53678;39.642;22.430;2023-03-23T10:47:46;12.60;;;6.15;;
65477;SDS011;53678;39.642;22.430;2023-03-23T10:50:21;10.43;;;6.63;;
65477;SDS011;53678;39.642;22.430;2023-03-23T10:52:50;11.07;;;6.93;;
65477;SDS011;53678;39.642;22.430;2023-03-23T10:55:20;9.55;;;6.13;;
65477;SDS011;53678;39.642;22.430;2023-03-23T10:58:49;9.73;;;6.47;;
65477;SDS011;53678;39.642;22.430;2023-03-23T11:00:57;9.43;;;5.97;;
65477;SDS011;53678;39.642;22.430;2023-03-23T11:03:28;13.52;;;5.88;;
65477;SDS011;53678;39.642;22.430;2023-03-23T11:06:43;9.10;;;5.47;;
65477;SDS011;53678;39.642;22.430;2023-03-23T11:08:55;7.25;;;5.30;;
65477;SDS011;53678;39.642;22.430;2023-03-23T11:11:32;9.00;;;5.43;;
65477;SDS011;53678;39.642;22.430;2023-03-23T11:14:17;11.25;;;5.80;;
65477;SDS011;53678;39.642;22.430;2023-03-23T11:16:49;8.25;;;5.22;;
65477;SDS011;53678;39.642;22.430;2023-03-23T11:19:22;7.65;;;5.15;;
65477;SDS011;53678;39.642;22.430;2023-03-23T11:21:53;7.47;;;4.75;;
65477;SDS011;53678;39.642;22.430;2023-03-23T11:24:32;10.18;;;6.15;;
65477;SDS011;53678;39.642;22.430;2023-03-23T11:27:11;10.30;;;6.47;;
65477;SDS011;53678;39.642;22.430;2023-03-23T11:29:49;7.70;;;5.60;;
65477;SDS011;53678;39.642;22.430;2023-03-23T11:32:28;9.63;;;5.43;;
65477;SDS011;53678;39.642;22.430;2023-03-23T11:34:57;8.52;;;5.20;;
65477;SDS011;53678;39.642;22.430;2023-03-23T11:37:29;9.07;;;5.68;;
65477;SDS011;53678;39.642;22.430;2023-03-23T11:40:17;13.25;;;6.15;;
65477;SDS011;53678;39.642;22.430;2023-03-23T11:42:47;10.57;;;7.93;;
65477;SDS011;53678;39.642;22.430;2023-03-23T11:48:18;11.63;;;6.15;;
65477;SDS011;53678;39.642;22.430;2023-03-23T11:53:20;10.23;;;5.78;;
65477;SDS011;53678;39.642;22.430;2023-03-23T11:58:51;7.40;;;5.78;;
65477;SDS011;53678;39.642;22.430;2023-03-23T12:17:54;8.80;;;5.47;;
65477;SDS011;53678;39.642;22.430;2023-03-23T12:23:34;6.88;;;5.55;;
65477;SDS011;53678;39.642;22.430;2023-03-23T12:31:45;7.55;;;4.60;;
65477;SDS011;53678;39.642;22.430;2023-03-23T12:36:49;9.20;;;4.88;;
65477;SDS011;53678;39.642;22.430;2023-03-23T12:47:46;7.70;;;5.38;;
65477;SDS011;53678;39.642;22.430;2023-03-23T12:50:21;7.80;;;4.90;;
65477;SDS011;53678;39.642;22.430;2023-03-23T12:52:55;8.15;;;5.22;;
65477;SDS011;53678;39.642;22.430;2023-03-23T12:58:31;7.65;;;5.80;;
65477;SDS011;53678;39.642;22.430;2023-03-23T13:01:02;11.95;;;6.05;;
65477;SDS011;53678;39.642;22.430;2023-03-23T13:08:51;7.80;;;5.00;;
65477;SDS011;53678;39.642;22.430;2023-03-23T13:11:24;6.50;;;4.30;;
65477;SDS011;53678;39.642;22.430;2023-03-23T13:17:26;10.13;;;5.97;;
65477;SDS011;53678;39.642;22.430;2023-03-23T13:20:11;8.45;;;5.55;;
65477;SDS011;53678;39.642;22.430;2023-03-23T13:25:48;10.05;;;5.95;;
65477;SDS011;53678;39.642;22.430;2023-03-23T13:28:22;12.65;;;5.72;;
65477;SDS011;53678;39.642;22.430;2023-03-23T13:30:54;11.73;;;5.22;;
65477;SDS011;53678;39.642;22.430;2023-03-23T13:33:22;7.78;;;5.38;;
65477;SDS011;53678;39.642;22.430;2023-03-23T13:35:49;10.38;;;6.00;;
65477;SDS011;53678;39.642;22.430;2023-03-23T13:38:26;7.85;;;4.85;;
65477;SDS011;53678;39.642;22.430;2023-03-23T13:40:56;6.68;;;5.25;;
65477;SDS011;53678;39.642;22.430;2023-03-23T13:43:32;15.73;;;10.00;;
65477;SDS011;53678;39.642;22.430;2023-03-23T13:46:07;9.38;;;6.40;;
65477;SDS011;53678;39.642;22.430;2023-03-23T13:48:42;10.52;;;6.53;;
65477;SDS011;53678;39.642;22.430;2023-03-23T14:07:53;8.63;;;6.10;;
65477;SDS011;53678;39.642;22.430;2023-03-23T14:10:41;7.28;;;5.38;;
65477;SDS011;53678;39.642;22.430;2023-03-23T14:13:14;6.88;;;5.20;;
65477;SDS011;53678;39.642;22.430;2023-03-23T14:18:31;7.30;;;5.07;;
65477;SDS011;53678;39.642;22.430;2023-03-23T14:21:02;8.68;;;5.50;;
65477;SDS011;53678;39.642;22.430;2023-03-23T14:23:30;8.57;;;4.97;;
65477;SDS011;53678;39.642;22.430;2023-03-23T14:26:00;12.82;;;5.63;;
65477;SDS011;53678;39.642;22.430;2023-03-23T14:28:42;7.25;;;5.32;;
65477;SDS011;53678;39.642;22.430;2023-03-23T14:31:28;8.05;;;5.20;;
65477;SDS011;53678;39.642;22.430;2023-03-23T14:33:55;7.03;;;5.53;;
65477;SDS011;53678;39.642;22.430;2023-03-23T14:36:27;7.40;;;5.45;;
65477;SDS011;53678;39.642;22.430;2023-03-23T14:39:05;8.23;;;5.53;;
65477;SDS011;53678;39.642;22.430;2023-03-23T14:41:39;9.05;;;5.63;;
65477;SDS011;53678;39.642;22.430;2023-03-23T14:44:06;7.97;;;5.38;;
65477;SDS011;53678;39.642;22.430;2023-03-23T14:46:35;7.47;;;5.35;;
65477;SDS011;53678;39.642;22.430;2023-03-23T14:49:02;7.97;;;5.88;;
65477;SDS011;53678;39.642;22.430;2023-03-23T14:51:29;9.10;;;5.68;;
65477;SDS011;53678;39.642;22.430;2023-03-23T14:53:55;7.10;;;5.55;;
65477;SDS011;53678;39.642;22.430;2023-03-23T14:56:30;9.32;;;6.00;;
65477;SDS011;53678;39.642;22.430;2023-03-23T14:59:02;7.55;;;5.65;;
65477;SDS011;53678;39.642;22.430;2023-03-23T15:01:31;7.80;;;5.68;;
65477;SDS011;53678;39.642;22.430;2023-03-23T15:04:07;8.68;;;6.05;;
65477;SDS011;53678;39.642;22.430;2023-03-23T15:06:37;10.25;;;6.18;;
65477;SDS011;53678;39.642;22.430;2023-03-23T15:09:06;8.38;;;5.65;;
65477;SDS011;53678;39.642;22.430;2023-03-23T15:11:37;9.52;;;5.30;;
65477;SDS011;53678;39.642;22.430;2023-03-23T15:14:10;7.30;;;5.53;;
65477;SDS011;53678;39.642;22.430;2023-03-23T15:16:49;9.10;;;6.10;;
65477;SDS011;53678;39.642;22.430;2023-03-23T15:19:42;10.93;;;6.53;;
65477;SDS011;53678;39.642;22.430;2023-03-23T15:25:01;9.32;;;5.70;;
65477;SDS011;53678;39.642;22.430;2023-03-23T15:27:41;8.75;;;5.63;;
65477;SDS011;53678;39.642;22.430;2023-03-23T15:30:15;10.57;;;6.43;;
65477;SDS011;53678;39.642;22.430;2023-03-23T15:35:39;8.73;;;6.15;;
65477;SDS011;53678;39.642;22.430;2023-03-23T15:38:52;12.77;;;6.72;;
65477;SDS011;53678;39.642;22.430;2023-03-23T15:41:01;9.20;;;6.10;;
65477;SDS011;53678;39.642;22.430;2023-03-23T15:43:34;8.57;;;6.35;;
65477;SDS011;53678;39.642;22.430;2023-03-23T15:48:32;9.82;;;6.72;;
65477;SDS011;53678;39.642;22.430;2023-03-23T15:51:01;9.23;;;6.07;;
65477;SDS011;53678;39.642;22.430;2023-03-23T15:53:32;8.90;;;6.70;;
65477;SDS011;53678;39.642;22.430;2023-03-23T15:56:00;10.15;;;6.47;;
65477;SDS011;53678;39.642;22.430;2023-03-23T15:58:28;8.27;;;6.57;;
65477;SDS011;53678;39.642;22.430;2023-03-23T16:00:54;9.35;;;6.32;;
65477;SDS011;53678;39.642;22.430;2023-03-23T16:03:28;9.60;;;6.78;;
65477;SDS011;53678;39.642;22.430;2023-03-23T16:05:59;9.32;;;6.45;;
65477;SDS011;53678;39.642;22.430;2023-03-23T16:08:27;10.80;;;7.05;;
65477;SDS011;53678;39.642;22.430;2023-03-23T16:10:54;10.07;;;7.55;;
65477;SDS011;53678;39.642;22.430;2023-03-23T16:13:20;12.65;;;7.07;;
65477;SDS011;53678;39.642;22.430;2023-03-23T16:15:47;13.05;;;6.95;;
65477;SDS011;53678;39.642;22.430;2023-03-23T16:18:16;9.82;;;6.90;;
65477;SDS011;53678;39.642;22.430;2023-03-23T16:20:43;10.05;;;7.57;;
65477;SDS011;53678;39.642;22.430;2023-03-23T16:23:09;10.23;;;7.00;;
65477;SDS011;53678;39.642;22.430;2023-03-23T16:25:35;11.02;;;7.57;;
65477;SDS011;53678;39.642;22.430;2023-03-23T16:28:01;13.05;;;8.10;;
65477;SDS011;53678;39.642;22.430;2023-03-23T16:30:27;12.55;;;8.00;;
65477;SDS011;53678;39.642;22.430;2023-03-23T16:32:54;14.98;;;8.38;;
65477;SDS011;53678;39.642;22.430;2023-03-23T16:35:20;11.48;;;8.57;;
65477;SDS011;53678;39.642;22.430;2023-03-23T16:37:47;13.05;;;8.48;;
65477;SDS011;53678;39.642;22.430;2023-03-23T16:40:16;12.13;;;8.32;;
65477;SDS011;53678;39.642;22.430;2023-03-23T16:42:43;16.48;;;8.77;;
65477;SDS011;53678;39.642;22.430;2023-03-23T16:45:09;15.57;;;9.20;;
65477;SDS011;53678;39.642;22.430;2023-03-23T16:47:36;15.85;;;8.85;;
65477;SDS011;53678;39.642;22.430;2023-03-23T16:50:03;17.75;;;10.23;;
65477;SDS011;53678;39.642;22.430;2023-03-23T16:52:32;15.35;;;9.77;;
65477;SDS011;53678;39.642;22.430;2023-03-23T16:54:58;15.40;;;10.27;;
65477;SDS011;53678;39.642;22.430;2023-03-23T16:57:25;15.15;;;10.77;;
65477;SDS011;53678;39.642;22.430;2023-03-23T16:59:51;17.77;;;9.95;;
65477;SDS011;53678;39.642;22.430;2023-03-23T17:02:17;14.48;;;9.40;;